Time;durP1;ratioP1;P1;durP2;ratioP2;P2;SDS_P1;SDS_P2;PMS_P1;PMS_P2;Temp;Humidity;BMP_temperature;BMP_pressure;BME280_temperature;BME280_humidity;BME280_pressure;Samples;Min_cycle;Max_cycle;Signal;HPM_P1;HPM_P2
2022/02/20 00:02:01;;;;;;;;;;;;;;;3.17;62.82;96496.25;5027034;28;20052;-75
2022/02/20 00:04:27;;;;;;;;;;;;;;;3.15;64.85;96484.44;5018948;28;19998;-75
2022/02/20 00:06:53;;;;;;;;;;;;;;;3.11;64.96;96491.75;5028915;28;19960;-75
2022/02/20 00:09:19;;;;;;;;;;;;;;;3.09;64.26;96490.28;5010923;28;20431;-75
2022/02/20 00:11:45;;;;;;;;;;;;;;;3.08;65.56;96491.28;5022148;28;19949;-75
2022/02/20 00:14:11;;;;;;;;;;;;;;;3.07;65.71;96497.44;5034831;28;19954;-75
2022/02/20 00:16:37;;;;;;;;;;;;;;;3.04;66.36;96488.22;5021085;28;19983;-75
2022/02/20 00:19:03;;;;;;;;;;;;;;;3.00;68.17;96497.28;5024083;28;19967;-75
2022/02/20 00:21:29;;;;;;;;;;;;;;;2.96;66.88;96493.44;5025950;28;19955;-75
2022/02/20 00:23:55;;;;;;;;;;;;;;;2.93;68.84;96502.34;5024216;28;19958;-75
2022/02/20 00:26:21;;;;;;;;;;;;;;;2.90;68.37;96507.06;5029528;28;19955;-75
2022/02/20 00:28:46;;;;;;;;;;;;;;;2.88;67.65;96502.06;5021550;28;20005;-75
2022/02/20 00:31:12;;;;;;;;;;;;;;;2.85;69.30;96503.19;5022090;28;19995;-76
2022/02/20 00:33:38;;;;;;;;;;;;;;;2.83;69.75;96499.97;5008276;28;19959;-75
2022/02/20 00:36:04;;;;;;;;;;;;;;;2.80;70.16;96497.72;5026377;28;19963;-75
2022/02/20 00:38:30;;;;;;;;;;;;;;;2.79;69.59;96497.88;5026599;28;20350;-75
2022/02/20 00:40:56;;;;;;;;;;;;;;;2.79;70.27;96501.28;5023365;28;19963;-75
2022/02/20 00:43:22;;;;;;;;;;;;;;;2.79;70.61;96503.03;5021684;28;19996;-75
2022/02/20 00:45:48;;;;;;;;;;;;;;;2.79;71.12;96503.03;5005983;28;20017;-75
2022/02/20 00:48:17;;;;;;;;;;;;;;;2.79;70.06;96492.69;5025096;28;19972;-75
2022/02/20 00:50:43;;;;;;;;;;;;;;;2.78;70.91;96496.28;4995157;28;20056;-75
2022/02/20 00:53:09;;;;;;;;;;;;;;;2.77;71.23;96503.25;4993594;28;20415;-76
2022/02/20 00:55:35;;;;;;;;;;;;;;;2.75;70.63;96496.59;4994920;28;20053;-75
2022/02/20 00:58:02;;;;;;;;;;;;;;;2.74;71.69;96493.19;4994817;28;20007;-75
2022/02/20 01:00:28;;;;;;;;;;;;;;;2.74;70.76;96479.44;4994519;28;20338;-75
2022/02/20 01:02:54;;;;;;;;;;;;;;;2.72;72.44;96497.72;4994740;28;19959;-75
2022/02/20 01:05:20;;;;;;;;;;;;;;;2.72;72.27;96496.94;4994725;28;19959;-74
2022/02/20 01:07:46;;;;;;;;;;;;;;;2.72;70.70;96491.75;4994804;28;19981;-75
2022/02/20 01:10:14;;;;;;;;;;;;;;;2.73;72.38;96509.72;4993371;28;19964;-75
2022/02/20 01:12:40;;;;;;;;;;;;;;;2.73;72.81;96512.31;4994739;28;19956;-75
2022/02/20 01:15:06;;;;;;;;;;;;;;;2.73;71.86;96504.53;4993352;28;19951;-75
2022/02/20 01:17:32;;;;;;;;;;;;;;;2.74;72.63;96510.53;4994116;28;19968;-75
2022/02/20 01:19:58;;;;;;;;;;;;;;;2.74;73.06;96513.91;4994506;28;20000;-75
2022/02/20 01:22:24;;;;;;;;;;;;;;;2.75;72.43;96518.13;4994629;28;19996;-75
2022/02/20 01:24:50;;;;;;;;;;;;;;;2.76;72.65;96511.16;4994114;28;20309;-75
2022/02/20 01:27:16;;;;;;;;;;;;;;;2.77;71.49;96515.34;4994534;28;20004;-74
2022/02/20 01:29:42;;;;;;;;;;;;;;;2.80;71.95;96525.41;4994099;28;19976;-76
2022/02/20 01:32:08;;;;;;;;;;;;;;;2.82;72.58;96526.03;4994662;28;19958;-75
2022/02/20 01:34:34;;;;;;;;;;;;;;;2.82;71.09;96519.06;4994427;28;19959;-75
2022/02/20 01:37:00;;;;;;;;;;;;;;;2.84;72.78;96524.88;4994560;28;19959;-76
2022/02/20 01:39:25;;;;;;;;;;;;;;;2.85;71.63;96528.28;4994152;28;19951;-75
2022/02/20 01:41:53;;;;;;;;;;;;;;;2.85;72.10;96529.06;4993358;28;20045;-75
2022/02/20 01:44:19;;;;;;;;;;;;;;;2.84;71.78;96527.47;4994230;28;19952;-75
2022/02/20 01:46:45;;;;;;;;;;;;;;;2.88;72.21;96530.56;4993997;28;20339;-75
2022/02/20 01:49:12;;;;;;;;;;;;;;;2.89;72.11;96529.56;4993884;28;19986;-75
2022/02/20 01:51:38;;;;;;;;;;;;;;;2.89;71.25;96516.63;4994021;28;19973;-75
2022/02/20 01:54:04;;;;;;;;;;;;;;;2.92;71.38;96521.47;4994446;28;19951;-76
2022/02/20 01:56:30;;;;;;;;;;;;;;;2.97;71.47;96523.56;4994121;28;19990;-75
2022/02/20 01:58:56;;;;;;;;;;;;;;;3.01;70.85;96514.47;4994117;28;20332;-76
2022/02/20 02:01:22;;;;;;;;;;;;;;;3.01;71.57;96517.88;4994133;28;19959;-76
2022/02/20 02:03:47;;;;;;;;;;;;;;;3.04;71.00;96506.34;4994163;28;19985;-75
2022/02/20 02:06:13;;;;;;;;;;;;;;;3.07;71.40;96512.97;4992711;28;19961;-75
2022/02/20 02:08:40;;;;;;;;;;;;;;;3.08;71.28;96512.81;4992779;28;20007;-75
2022/02/20 02:11:07;;;;;;;;;;;;;;;3.10;70.90;96510.84;4993888;28;19954;-76
2022/02/20 02:13:33;;;;;;;;;;;;;;;3.11;71.05;96511.66;4994028;28;19953;-75
2022/02/20 02:15:59;;;;;;;;;;;;;;;3.12;70.15;96505.50;4993688;28;19990;-75
2022/02/20 02:18:25;;;;;;;;;;;;;;;3.14;70.42;96495.78;4994229;28;20406;-75
2022/02/20 02:20:51;;;;;;;;;;;;;;;3.16;71.11;96515.38;4994029;28;19973;-75
2022/02/20 02:23:18;;;;;;;;;;;;;;;3.18;70.57;96504.84;4993819;28;19960;-76
2022/02/20 02:25:46;;;;;;;;;;;;;;;3.21;70.24;96494.94;4981227;28;19953;-75
2022/02/20 02:28:12;;;;;;;;;;;;;;;3.23;70.34;96508.53;4993613;28;19970;-75
2022/02/20 02:30:37;;;;;;;;;;;;;;;3.26;70.75;96504.81;4992977;28;19960;-75
2022/02/20 02:33:03;;;;;;;;;;;;;;;3.29;70.34;96506.25;4993891;28;19958;-75
2022/02/20 02:35:29;;;;;;;;;;;;;;;3.32;70.32;96498.09;4993672;28;20375;-75
2022/02/20 02:37:55;;;;;;;;;;;;;;;3.33;71.00;96499.75;4993871;28;19981;-76
2022/02/20 02:40:21;;;;;;;;;;;;;;;3.35;70.96;96511.53;4993632;28;19949;-75
2022/02/20 02:42:48;;;;;;;;;;;;;;;3.36;71.05;96513.19;4992666;28;20425;-76
2022/02/20 02:45:14;;;;;;;;;;;;;;;3.37;70.91;96507.00;4993682;28;19964;-75
2022/02/20 02:47:43;;;;;;;;;;;;;;;3.39;70.34;96520.59;4993070;28;19964;-75
2022/02/20 02:50:09;;;;;;;;;;;;;;;3.40;70.26;96505.84;5006894;28;20353;-75
2022/02/20 02:52:35;;;;;;;;;;;;;;;3.40;70.78;96505.84;5003321;28;20059;-75
2022/02/20 02:55:00;;;;;;;;;;;;;;;3.40;70.71;96511.84;5007691;28;19967;-76
2022/02/20 02:57:26;;;;;;;;;;;;;;;3.40;71.45;96530.00;5008248;28;20039;-75
2022/02/20 02:59:52;;;;;;;;;;;;;;;3.42;71.46;96527.22;5005578;28;19957;-75
2022/02/20 03:02:18;;;;;;;;;;;;;;;3.42;71.67;96525.44;5006015;28;19996;-75
2022/02/20 03:04:44;;;;;;;;;;;;;;;3.43;71.32;96528.84;5011361;28;19992;-75
2022/02/20 03:07:12;;;;;;;;;;;;;;;3.43;71.29;96527.06;5008752;28;19972;-76
2022/02/20 03:09:39;;;;;;;;;;;;;;;3.45;71.70;96521.72;4989752;28;20473;-75
2022/02/20 03:12:05;;;;;;;;;;;;;;;3.47;72.09;96526.72;5001312;28;19968;-75
2022/02/20 03:14:32;;;;;;;;;;;;;;;3.47;71.94;96530.13;5003723;28;19966;-75
2022/02/20 03:16:57;;;;;;;;;;;;;;;3.48;72.51;96529.13;5006274;28;20431;-75
2022/02/20 03:19:23;;;;;;;;;;;;;;;3.49;73.38;96537.75;5010868;28;20050;-76
2022/02/20 03:21:49;;;;;;;;;;;;;;;3.49;73.08;96535.94;5007196;28;20409;-75
2022/02/20 03:24:15;;;;;;;;;;;;;;;3.50;73.48;96532.34;5002390;28;19960;-75
2022/02/20 03:26:41;;;;;;;;;;;;;;;3.50;72.74;96534.16;5008923;28;19966;-75
2022/02/20 03:29:07;;;;;;;;;;;;;;;3.49;75.21;96546.31;5006143;28;19983;-75
2022/02/20 03:31:33;;;;;;;;;;;;;;;3.49;74.45;96535.16;5000499;28;20316;-75
2022/02/20 03:33:59;;;;;;;;;;;;;;;3.47;74.82;96537.91;5008568;28;19970;-75
2022/02/20 03:36:24;;;;;;;;;;;;;;;3.45;75.04;96527.69;5009567;28;19965;-75
2022/02/20 03:38:51;;;;;;;;;;;;;;;3.45;75.39;96542.44;5007515;28;20031;-75
2022/02/20 03:41:17;;;;;;;;;;;;;;;3.44;76.05;96548.59;5003255;28;19962;-75
2022/02/20 03:43:43;;;;;;;;;;;;;;;3.43;77.18;96547.78;5000981;28;19961;-75
2022/02/20 03:46:09;;;;;;;;;;;;;;;3.42;75.95;96547.97;5005819;28;19952;-75
2022/02/20 03:48:35;;;;;;;;;;;;;;;3.41;76.46;96557.53;5010183;28;20001;-75
2022/02/20 03:51:02;;;;;;;;;;;;;;;3.41;76.51;96556.72;4994741;28;19958;-75
2022/02/20 03:53:28;;;;;;;;;;;;;;;3.42;76.03;96558.31;4995987;28;19986;-76
2022/02/20 03:55:54;;;;;;;;;;;;;;;3.42;75.73;96550.53;4996229;28;19997;-75
2022/02/20 03:58:20;;;;;;;;;;;;;;;3.45;76.57;96563.19;4996002;28;19961;-75
2022/02/20 04:00:46;;;;;;;;;;;;;;;3.43;77.42;96572.91;4995764;28;20429;-75
2022/02/20 04:03:12;;;;;;;;;;;;;;;3.41;77.45;96561.91;4995701;28;20004;-75
2022/02/20 04:05:37;;;;;;;;;;;;;;;3.36;78.46;96570.19;4994795;28;20331;-76
2022/02/20 04:08:04;;;;;;;;;;;;;;;3.35;78.32;96578.94;4995695;28;20001;-76
2022/02/20 04:10:30;;;;;;;;;;;;;;;3.33;79.47;96582.69;4995614;28;19958;-74
2022/02/20 04:12:56;;;;;;;;;;;;;;;3.30;79.30;96576.06;4995319;28;19963;-75
2022/02/20 04:15:22;;;;;;;;;;;;;;;3.28;80.87;96577.22;4994430;28;19953;-75
2022/02/20 04:17:49;;;;;;;;;;;;;;;3.26;80.43;96577.38;4995441;28;20045;-75
2022/02/20 04:20:15;;;;;;;;;;;;;;;3.25;80.92;96580.91;4995757;28;19960;-74
2022/02/20 04:22:44;;;;;;;;;;;;;;;3.24;79.61;96585.31;4977920;28;19958;-75
2022/02/20 04:25:11;;;;;;;;;;;;;;;3.24;80.75;96587.91;4995420;28;20414;-74
2022/02/20 04:27:38;;;;;;;;;;;;;;;3.25;80.92;96591.28;4995257;28;19958;-75
2022/02/20 04:30:04;;;;;;;;;;;;;;;3.23;80.66;96598.41;4993985;28;19972;-75
2022/02/20 04:32:30;;;;;;;;;;;;;;;3.23;81.68;96601.84;4995226;28;19959;-75
2022/02/20 04:34:56;;;;;;;;;;;;;;;3.22;81.52;96602.00;4995043;28;20421;-75
2022/02/20 04:37:23;;;;;;;;;;;;;;;3.19;83.58;96603.16;4995242;28;20316;-75
2022/02/20 04:39:49;;;;;;;;;;;;;;;3.18;82.79;96600.72;4995438;28;19968;-75
2022/02/20 04:42:15;;;;;;;;;;;;;;;3.19;82.45;96602.31;4995021;28;20333;-74
2022/02/20 04:44:40;;;;;;;;;;;;;;;3.18;83.45;96592.94;4995281;28;19992;-75
2022/02/20 04:47:07;;;;;;;;;;;;;;;3.16;82.58;96607.84;4994761;28;19962;-75
2022/02/20 04:49:32;;;;;;;;;;;;;;;3.17;81.24;96602.50;4994580;28;20365;-75
2022/02/20 04:51:58;;;;;;;;;;;;;;;3.18;81.62;96605.91;4994770;28;19951;-75
2022/02/20 04:54:24;;;;;;;;;;;;;;;3.22;82.01;96620.16;4994958;28;19954;-75
2022/02/20 04:56:51;;;;;;;;;;;;;;;3.22;83.17;96612.38;4995133;28;19980;-75
2022/02/20 04:59:17;;;;;;;;;;;;;;;3.23;83.05;96616.56;4993546;28;19959;-76
2022/02/20 05:01:43;;;;;;;;;;;;;;;3.23;82.42;96619.16;4994750;28;19949;-76
2022/02/20 05:04:10;;;;;;;;;;;;;;;3.24;83.29;96625.97;4994156;28;20460;-77
2022/02/20 05:06:36;;;;;;;;;;;;;;;3.24;83.19;96624.19;4994796;28;19955;-75
2022/02/20 05:09:02;;;;;;;;;;;;;;;3.26;82.84;96624.03;4994450;28;20060;-76
2022/02/20 05:11:28;;;;;;;;;;;;;;;3.27;81.74;96633.41;4994739;28;19975;-75
2022/02/20 05:13:55;;;;;;;;;;;;;;;3.28;82.92;96632.44;4994718;28;20423;-75
2022/02/20 05:16:21;;;;;;;;;;;;;;;3.30;82.05;96629.66;4994507;28;19961;-75
2022/02/20 05:18:47;;;;;;;;;;;;;;;3.32;82.50;96622.53;4995047;28;19947;-76
2022/02/20 05:21:13;;;;;;;;;;;;;;;3.33;82.73;96627.56;4994407;28;20345;-75
2022/02/20 05:23:39;;;;;;;;;;;;;;;3.34;82.91;96629.19;4994923;28;19954;-76
2022/02/20 05:26:05;;;;;;;;;;;;;;;3.35;83.35;96627.38;4994315;28;20482;-76
2022/02/20 05:28:31;;;;;;;;;;;;;;;3.36;83.15;96637.59;4993011;28;19977;-76
2022/02/20 05:30:57;;;;;;;;;;;;;;;3.37;82.33;96635.81;4993121;28;19966;-76
2022/02/20 05:33:23;;;;;;;;;;;;;;;3.37;83.81;96621.06;4994411;28;20425;-76
2022/02/20 05:35:49;;;;;;;;;;;;;;;3.38;83.01;96621.84;4992983;28;19969;-77
2022/02/20 05:38:16;;;;;;;;;;;;;;;3.39;82.88;96619.09;4984973;28;19954;-76
2022/02/20 05:40:42;;;;;;;;;;;;;;;3.40;82.58;96638.06;4994150;28;19958;-76
2022/02/20 05:43:08;;;;;;;;;;;;;;;3.37;83.73;96626.25;4994394;28;19963;-76
2022/02/20 05:45:34;;;;;;;;;;;;;;;3.37;83.74;96630.63;4993036;28;19962;-76
2022/02/20 05:48:00;;;;;;;;;;;;;;;3.37;83.87;96635.81;4994275;28;19965;-78
2022/02/20 05:50:26;;;;;;;;;;;;;;;3.35;84.09;96633.38;4994273;28;19976;-76
2022/02/20 05:52:52;;;;;;;;;;;;;;;3.35;83.85;96630.78;4993252;28;19968;-76
2022/02/20 05:55:18;;;;;;;;;;;;;;;3.35;84.11;96627.38;4994229;28;20444;-76
2022/02/20 05:57:45;;;;;;;;;;;;;;;3.35;83.43;96629.97;4994062;28;20319;-76
2022/02/20 06:00:12;;;;;;;;;;;;;;;3.35;84.93;96627.38;4993220;28;19958;-76
2022/02/20 06:02:37;;;;;;;;;;;;;;;3.33;84.58;96619.78;4994052;28;19955;-77
2022/02/20 06:05:03;;;;;;;;;;;;;;;3.32;84.40;96610.41;4993873;28;19965;-76
2022/02/20 06:07:29;;;;;;;;;;;;;;;3.33;84.65;96613.78;4993914;28;19960;-76
2022/02/20 06:09:55;;;;;;;;;;;;;;;3.34;85.06;96611.03;4994014;28;19968;-76
2022/02/20 06:12:21;;;;;;;;;;;;;;;3.33;83.11;96611.19;4992768;28;20070;-76
2022/02/20 06:14:47;;;;;;;;;;;;;;;3.34;83.25;96605.03;4994034;28;19966;-76
2022/02/20 06:17:13;;;;;;;;;;;;;;;3.37;83.60;96618.47;4992939;28;20009;-77
2022/02/20 06:19:39;;;;;;;;;;;;;;;3.37;83.61;96621.06;4992931;28;19961;-76
2022/02/20 06:22:04;;;;;;;;;;;;;;;3.39;84.35;96623.50;4993958;28;20376;-75
2022/02/20 06:24:31;;;;;;;;;;;;;;;3.37;83.49;96623.66;4992951;28;20038;-76
2022/02/20 06:26:58;;;;;;;;;;;;;;;3.38;84.34;96627.03;4993919;28;19953;-76
2022/02/20 06:29:25;;;;;;;;;;;;;;;3.38;84.06;96625.28;4995593;28;19971;-76
2022/02/20 06:31:51;;;;;;;;;;;;;;;3.40;84.24;96632.88;4997598;28;20316;-75
2022/02/20 06:34:16;;;;;;;;;;;;;;;3.40;83.82;96638.06;4997415;28;20009;-76
2022/02/20 06:36:43;;;;;;;;;;;;;;;3.40;83.72;96640.63;4997518;28;19957;-76
2022/02/20 06:39:10;;;;;;;;;;;;;;;3.39;84.08;96636.44;4996644;28;19960;-76
2022/02/20 06:41:36;;;;;;;;;;;;;;;3.41;84.56;96647.47;4997349;28;20061;-76
2022/02/20 06:44:02;;;;;;;;;;;;;;;3.43;83.49;96648.09;4997493;28;20357;-76
2022/02/20 06:46:28;;;;;;;;;;;;;;;3.43;82.80;96655.88;4997079;28;19953;-76
2022/02/20 06:48:54;;;;;;;;;;;;;;;3.44;84.59;96658.31;4997467;28;19985;-76
2022/02/20 06:51:20;;;;;;;;;;;;;;;3.43;84.20;96651.50;4997286;28;20059;-76
2022/02/20 06:53:46;;;;;;;;;;;;;;;3.44;84.56;96654.88;4996992;28;19961;-76
2022/02/20 06:56:12;;;;;;;;;;;;;;;3.45;84.05;96649.53;4996942;28;20401;-76
2022/02/20 06:58:38;;;;;;;;;;;;;;;3.45;83.99;96652.13;4997213;28;20321;-76
2022/02/20 07:01:04;;;;;;;;;;;;;;;3.47;83.88;96656.34;4995574;28;19963;-76
2022/02/20 07:03:30;;;;;;;;;;;;;;;3.48;83.10;96653.56;4995865;28;20386;-76
2022/02/20 07:05:56;;;;;;;;;;;;;;;3.49;83.20;96657.00;4996773;28;19969;-76
2022/02/20 07:08:22;;;;;;;;;;;;;;;3.51;83.02;96665.38;4996749;28;20046;-76
2022/02/20 07:10:47;;;;;;;;;;;;;;;3.53;82.81;96668.63;4996661;28;20489;-76
2022/02/20 07:13:13;;;;;;;;;;;;;;;3.56;83.25;96663.91;4995676;28;19957;-76
2022/02/20 07:15:39;;;;;;;;;;;;;;;3.59;82.24;96675.72;4996818;28;20057;-76
2022/02/20 07:18:07;;;;;;;;;;;;;;;3.62;83.44;96667.63;4996738;28;19958;-76
2022/02/20 07:20:33;;;;;;;;;;;;;;;3.64;82.77;96669.06;4996685;28;19964;-76
2022/02/20 07:22:58;;;;;;;;;;;;;;;3.67;82.03;96662.75;4996598;28;20344;-76
2022/02/20 07:25:24;;;;;;;;;;;;;;;3.70;81.54;96659.03;4996341;28;19958;-76
2022/02/20 07:27:54;;;;;;;;;;;;;;;3.72;82.78;96673.44;4996524;28;20402;-76
2022/02/20 07:30:21;;;;;;;;;;;;;;;3.75;81.66;96669.69;4996203;28;19964;-76
2022/02/20 07:32:47;;;;;;;;;;;;;;;3.79;82.54;96670.97;4996526;28;19953;-76
2022/02/20 07:35:13;;;;;;;;;;;;;;;3.82;81.65;96674.03;4997084;28;20375;-76
2022/02/20 07:37:39;;;;;;;;;;;;;;;3.87;80.87;96676.13;4996567;28;19955;-76
2022/02/20 07:40:06;;;;;;;;;;;;;;;3.93;81.16;96674.63;4994999;28;20433;-76
2022/02/20 07:42:32;;;;;;;;;;;;;;;3.97;81.36;96668.09;4996346;28;19961;-76
2022/02/20 07:44:58;;;;;;;;;;;;;;;4.01;80.82;96665.03;4994859;28;19960;-76
2022/02/20 07:47:23;;;;;;;;;;;;;;;4.06;80.59;96662.72;4996496;28;19963;-76
2022/02/20 07:49:49;;;;;;;;;;;;;;;4.10;80.38;96658.00;4995770;28;20080;-76
2022/02/20 07:52:15;;;;;;;;;;;;;;;4.16;80.96;96656.47;4996047;28;19984;-76
2022/02/20 07:54:42;;;;;;;;;;;;;;;4.20;79.88;96650.78;4995852;28;19957;-76
2022/02/20 07:57:08;;;;;;;;;;;;;;;4.26;79.89;96646.69;4994890;28;19955;-76
2022/02/20 07:59:34;;;;;;;;;;;;;;;4.30;79.80;96649.75;4996035;28;19958;-76
2022/02/20 08:02:00;;;;;;;;;;;;;;;4.33;79.75;96652.81;4995800;28;20049;-76
2022/02/20 08:04:26;;;;;;;;;;;;;;;4.33;79.16;96646.81;4995817;28;20431;-76
2022/02/20 08:06:53;;;;;;;;;;;;;;;4.34;78.91;96640.63;4996437;28;19953;-76
2022/02/20 08:09:19;;;;;;;;;;;;;;;4.35;79.30;96632.69;4995580;28;19964;-76
2022/02/20 08:11:45;;;;;;;;;;;;;;;4.36;79.16;96628.28;4995601;28;20453;-77
2022/02/20 08:14:11;;;;;;;;;;;;;;;4.36;79.06;96634.28;4995675;28;20004;-76
2022/02/20 08:16:37;;;;;;;;;;;;;;;4.38;79.55;96629.72;4994549;28;20037;-76
2022/02/20 08:19:03;;;;;;;;;;;;;;;4.41;78.85;96637.19;4994197;28;19960;-76
2022/02/20 08:21:29;;;;;;;;;;;;;;;4.43;79.37;96630.03;4995517;28;20406;-76
2022/02/20 08:23:55;;;;;;;;;;;;;;;4.47;79.39;96630.47;4995375;28;19955;-76
2022/02/20 08:26:22;;;;;;;;;;;;;;;4.51;78.56;96633.53;4995420;28;19951;-76
2022/02/20 08:28:48;;;;;;;;;;;;;;;4.52;78.84;96633.34;4995323;28;19957;-76
2022/02/20 08:31:14;;;;;;;;;;;;;;;4.56;78.53;96629.44;4995186;28;19964;-76
2022/02/20 08:33:40;;;;;;;;;;;;;;;4.61;78.47;96634.88;4995347;28;20315;-76
2022/02/20 08:36:06;;;;;;;;;;;;;;;4.67;78.34;96630.78;4995364;28;19951;-76
2022/02/20 08:38:32;;;;;;;;;;;;;;;4.74;77.78;96623.09;4995054;28;19962;-76
2022/02/20 08:40:58;;;;;;;;;;;;;;;4.84;77.81;96632.25;4995130;28;19960;-76
2022/02/20 08:43:26;;;;;;;;;;;;;;;4.95;77.26;96633.59;4995166;28;19961;-76
2022/02/20 08:45:52;;;;;;;;;;;;;;;5.05;76.59;96625.56;4993951;28;19966;-76
2022/02/20 08:48:18;;;;;;;;;;;;;;;5.14;76.45;96632.28;4995204;28;19962;-76
2022/02/20 08:50:44;;;;;;;;;;;;;;;5.21;76.56;96637.59;4993374;28;20393;-77
2022/02/20 08:53:10;;;;;;;;;;;;;;;5.25;76.53;96631.06;4994932;28;20365;-76
2022/02/20 08:55:36;;;;;;;;;;;;;;;5.28;75.92;96617.69;4993886;28;19958;-76
2022/02/20 08:58:03;;;;;;;;;;;;;;;5.28;75.84;96633.28;4994664;28;20017;-76
2022/02/20 09:00:29;;;;;;;;;;;;;;;5.31;75.36;96626.91;4994932;28;19950;-76
2022/02/20 09:02:54;;;;;;;;;;;;;;;5.32;75.51;96634.53;4994894;28;19993;-76
2022/02/20 09:05:20;;;;;;;;;;;;;;;5.34;75.19;96631.75;4994514;28;20006;-76
2022/02/20 09:07:46;;;;;;;;;;;;;;;5.37;75.55;96636.59;4994439;28;20028;-77
2022/02/20 09:10:12;;;;;;;;;;;;;;;5.38;75.54;96633.81;4994407;28;20057;-77
2022/02/20 09:12:39;;;;;;;;;;;;;;;5.43;74.94;96630.66;4992978;28;20321;-76
2022/02/20 09:15:06;;;;;;;;;;;;;;;5.45;74.69;96633.91;4993226;28;19959;-77
2022/02/20 09:17:32;;;;;;;;;;;;;;;5.49;75.06;96640.34;4994537;28;19981;-76
2022/02/20 09:19:59;;;;;;;;;;;;;;;5.53;75.36;96649.41;4994601;28;20327;-76
2022/02/20 09:22:25;;;;;;;;;;;;;;;5.57;74.41;96644.66;4994769;28;20325;-76
2022/02/20 09:24:51;;;;;;;;;;;;;;;5.60;74.94;96652.09;4994288;28;19953;-76
2022/02/20 09:27:17;;;;;;;;;;;;;;;5.61;74.33;96654.53;4994377;28;20396;-76
2022/02/20 09:29:43;;;;;;;;;;;;;;;5.66;74.52;96656.56;4994283;28;19980;-76
2022/02/20 09:32:09;;;;;;;;;;;;;;;5.71;74.43;96656.81;4994428;28;20080;-76
2022/02/20 09:34:36;;;;;;;;;;;;;;;5.74;73.95;96640.88;4994279;28;20396;-76
2022/02/20 09:37:02;;;;;;;;;;;;;;;5.74;74.02;96643.47;4994302;28;19952;-76
2022/02/20 09:39:28;;;;;;;;;;;;;;;5.76;73.49;96633.69;4994240;28;19988;-76
2022/02/20 09:41:56;;;;;;;;;;;;;;;5.77;73.44;96637.09;4992846;28;20418;-77
2022/02/20 09:44:22;;;;;;;;;;;;;;;5.76;73.42;96644.09;4993101;28;19950;-76
2022/02/20 09:46:48;;;;;;;;;;;;;;;5.74;73.87;96648.66;4994004;28;20005;-76
2022/02/20 09:49:14;;;;;;;;;;;;;;;5.77;73.87;96639.69;4993527;28;19983;-76
2022/02/20 09:51:40;;;;;;;;;;;;;;;5.81;74.20;96631.31;4993592;28;19974;-77
2022/02/20 09:54:06;;;;;;;;;;;;;;;5.88;73.61;96619.22;4994001;28;19961;-76
2022/02/20 09:56:32;;;;;;;;;;;;;;;5.94;73.97;96615.03;4994413;28;19958;-76
2022/02/20 09:58:58;;;;;;;;;;;;;;;5.96;73.30;96610.50;4994118;28;19962;-76
2022/02/20 10:01:24;;;;;;;;;;;;;;;5.99;73.77;96601.53;4993952;28;19961;-76
2022/02/20 10:03:50;;;;;;;;;;;;;;;6.02;73.58;96599.34;4996236;28;19958;-76
2022/02/20 10:06:20;;;;;;;;;;;;;;;6.08;73.75;96613.44;4998104;28;19950;-76
2022/02/20 10:08:50;;;;;;;;;;;;;;;6.12;73.77;96608.66;4997788;28;19952;-76
2022/02/20 10:11:18;;;;;;;;;;;;;;;6.15;73.21;96614.28;4997957;28;19966;-76
2022/02/20 10:13:44;;;;;;;;;;;;;;;6.17;73.41;96620.13;4998396;28;19957;-76
2022/02/20 10:16:16;;;;;;;;;;;;;;;6.21;73.26;96616.16;4997748;28;19960;-76
2022/02/20 10:18:45;;;;;;;;;;;;;;;6.24;73.58;96607.97;4998016;28;19968;-76
2022/02/20 10:21:16;;;;;;;;;;;;;;;6.28;72.92;96609.22;4997631;28;19965;-76
2022/02/20 10:23:42;;;;;;;;;;;;;;;6.34;72.77;96604.25;4997954;28;19965;-76
2022/02/20 10:26:12;;;;;;;;;;;;;;;6.38;72.75;96606.28;4996372;28;19968;-76
2022/02/20 10:28:57;;;;;;;;;;;;;;;6.46;73.28;96621.00;4997872;28;20057;-76
2022/02/20 10:31:39;;;;;;;;;;;;;;;6.53;72.77;96614.06;4984076;28;19967;-76
2022/02/20 10:34:06;;;;;;;;;;;;;;;6.54;71.68;96613.03;4997640;28;19973;-76
2022/02/20 10:36:44;;;;;;;;;;;;;;;6.53;70.72;96597.59;4997303;28;19950;-74
2022/02/20 10:39:36;;;;;;;;;;;;;;;6.56;70.68;96600.63;4996457;28;20420;-75
2022/02/20 10:42:10;;;;;;;;;;;;;;;6.65;71.17;96607.31;4994329;28;19960;-74
2022/02/20 10:44:49;;;;;;;;;;;;;;;6.75;70.39;96590.56;4997386;28;20438;-74
2022/02/20 10:47:15;;;;;;;;;;;;;;;6.80;70.41;96583.75;4996146;28;19966;-75
2022/02/20 10:49:41;;;;;;;;;;;;;;;6.84;70.49;96587.59;4997266;28;19992;-75
2022/02/20 10:52:29;;;;;;;;;;;;;;;6.95;70.77;96585.47;4997240;28;19989;-74
2022/02/20 10:55:09;;;;;;;;;;;;;;;6.98;69.69;96570.25;5000409;28;19958;-74
2022/02/20 10:57:36;;;;;;;;;;;;;;;7.05;70.84;96575.50;4997403;28;19966;-75
2022/02/20 11:00:19;;;;;;;;;;;;;;;7.14;70.46;96563.09;4995804;28;19955;-75
2022/02/20 11:02:45;;;;;;;;;;;;;;;7.23;69.90;96554.13;4997069;28;19962;-75
2022/02/20 11:05:12;;;;;;;;;;;;;;;7.28;68.85;96529.06;4996921;28;19955;-75
2022/02/20 11:07:38;;;;;;;;;;;;;;;7.36;69.15;96556.00;4996586;28;19963;-75
2022/02/20 11:10:06;;;;;;;;;;;;;;;7.40;68.93;96547.56;4979415;28;19976;-74
2022/02/20 11:12:32;;;;;;;;;;;;;;;7.48;68.74;96525.75;4996758;28;19958;-75
2022/02/20 11:15:00;;;;;;;;;;;;;;;7.57;67.96;96526.38;4995440;28;19958;-75
2022/02/20 11:17:26;;;;;;;;;;;;;;;7.64;67.32;96499.28;4996679;28;20414;-75
2022/02/20 11:19:53;;;;;;;;;;;;;;;7.68;67.04;96513.53;4997400;28;19951;-75
2022/02/20 11:22:20;;;;;;;;;;;;;;;7.75;67.30;96528.41;4996965;28;19959;-75
2022/02/20 11:24:46;;;;;;;;;;;;;;;7.78;67.63;96523.59;4995305;28;19963;-75
2022/02/20 11:27:15;;;;;;;;;;;;;;;7.75;65.81;96507.50;4996544;28;19963;-75
2022/02/20 11:29:42;;;;;;;;;;;;;;;7.75;66.44;96512.72;4996461;28;19953;-76
2022/02/20 11:32:09;;;;;;;;;;;;;;;7.75;66.07;96503.13;4996312;28;20299;-75
2022/02/20 11:34:42;;;;;;;;;;;;;;;7.78;66.69;96499.31;4996321;28;19952;-75
2022/02/20 11:37:09;;;;;;;;;;;;;;;7.73;66.55;96490.25;4996829;28;19976;-75
2022/02/20 11:39:35;;;;;;;;;;;;;;;7.75;67.02;96479.63;4996351;28;19965;-75
2022/02/20 11:42:07;;;;;;;;;;;;;;;7.75;67.08;96471.78;4996142;28;19955;-75
2022/02/20 11:44:46;;;;;;;;;;;;;;;7.76;66.50;96465.56;4996303;28;19953;-75
2022/02/20 11:47:35;;;;;;;;;;;;;;;7.76;66.59;96467.38;4996349;28;20021;-75
2022/02/20 11:50:17;;;;;;;;;;;;;;;7.76;66.34;96462.94;4993679;28;20360;-75
2022/02/20 11:52:56;;;;;;;;;;;;;;;7.74;66.04;96457.13;5010580;28;20358;-74
2022/02/20 11:55:32;;;;;;;;;;;;;;;7.67;65.89;96469.38;5010300;28;19965;-75
2022/02/20 11:58:10;;;;;;;;;;;;;;;7.58;66.09;96468.75;4999343;28;19951;-75
2022/02/20 12:00:37;;;;;;;;;;;;;;;7.54;66.43;96467.53;5006643;28;20322;-75
2022/02/20 12:03:04;;;;;;;;;;;;;;;7.52;66.90;96472.94;5004886;28;20306;-75
2022/02/20 12:05:31;;;;;;;;;;;;;;;7.49;66.94;96467.31;5002467;28;19958;-75
2022/02/20 12:07:57;;;;;;;;;;;;;;;7.44;67.04;96454.06;5005733;28;19966;-75
2022/02/20 12:10:24;;;;;;;;;;;;;;;7.41;66.84;96470.09;4993058;28;19973;-75
2022/02/20 12:12:50;;;;;;;;;;;;;;;7.37;66.83;96456.66;4999801;28;19951;-75
2022/02/20 12:15:34;;;;;;;;;;;;;;;7.33;66.61;96439.81;5001764;28;20002;-76
2022/02/20 12:18:20;;;;;;;;;;;;;;;7.27;66.69;96433.56;5002565;28;19956;-75
2022/02/20 12:20:47;;;;;;;;;;;;;;;7.25;67.12;96438.16;4996268;28;19960;-75
2022/02/20 12:23:31;;;;;;;;;;;;;;;7.23;67.30;96448.00;5008271;28;19962;-75
2022/02/20 12:26:01;;;;;;;;;;;;;;;7.20;67.42;96440.56;5006248;28;19960;-77
2022/02/20 12:28:35;;;;;;;;;;;;;;;7.18;67.79;96439.97;5002859;28;20340;-75
2022/02/20 12:31:29;;;;;;;;;;;;;;;7.17;68.11;96440.16;4982322;28;19968;-75
2022/02/20 12:33:55;;;;;;;;;;;;;;;7.16;68.25;96435.91;5000577;28;19951;-75
2022/02/20 12:36:25;;;;;;;;;;;;;;;7.14;68.27;96423.09;5008196;28;19956;-75
2022/02/20 12:38:55;;;;;;;;;;;;;;;7.14;68.52;96430.94;5007529;28;19960;-75
2022/02/20 12:41:21;;;;;;;;;;;;;;;7.13;68.38;96412.84;5004880;28;19959;-75
2022/02/20 12:43:47;;;;;;;;;;;;;;;7.14;68.65;96430.09;5006630;28;20419;-75
2022/02/20 12:46:14;;;;;;;;;;;;;;;7.14;68.84;96430.94;5005027;28;19948;-75
2022/02/20 12:48:40;;;;;;;;;;;;;;;7.17;69.04;96442.75;5005215;28;19998;-75
2022/02/20 12:51:08;;;;;;;;;;;;;;;7.20;68.95;96434.53;5001458;28;19985;-75
2022/02/20 12:53:34;;;;;;;;;;;;;;;7.25;68.89;96450.41;5004810;28;19970;-75
2022/02/20 12:56:02;;;;;;;;;;;;;;;7.29;69.04;96444.59;5006731;28;19960;-74
2022/02/20 12:58:28;;;;;;;;;;;;;;;7.34;68.78;96430.16;5005469;28;19963;-75